createdAt,value
2017-11-29T00:00:25.540Z,84.03
2017-11-29T00:02:28.214Z,83.03
2017-11-29T00:04:30.897Z,81.47
2017-11-29T00:06:33.566Z,87.90
2017-11-29T00:08:36.258Z,86.70
2017-11-29T00:10:38.917Z,88.40
2017-11-29T00:12:41.604Z,88.47
2017-11-29T00:14:44.316Z,86.43
2017-11-29T00:16:47.739Z,75.53
2017-11-29T00:18:50.394Z,85.63
2017-11-29T00:20:53.964Z,92.27
2017-11-29T00:22:56.668Z,82.70
2017-11-29T00:24:59.356Z,76.33
2017-11-29T00:27:02.018Z,76.80
2017-11-29T00:29:05.454Z,88.60
2017-11-29T00:31:08.115Z,73.20
2017-11-29T00:33:10.811Z,88.90
2017-11-29T00:35:13.516Z,87.43
2017-11-29T00:37:16.282Z,99.03
2017-11-29T00:39:19.017Z,97.60
2017-11-29T00:41:21.718Z,89.60
2017-11-29T00:43:24.390Z,75.10
2017-11-29T00:45:27.069Z,83.17
2017-11-29T00:47:29.714Z,90.07
2017-11-29T00:49:32.432Z,78.90
2017-11-29T00:51:35.092Z,80.40
2017-11-29T00:53:37.760Z,72.60
2017-11-29T00:55:40.455Z,67.97
2017-11-29T00:57:43.121Z,67.40
2017-11-29T00:59:45.883Z,83.00
2017-11-29T01:01:49.669Z,75.67
2017-11-29T01:03:52.348Z,74.97
2017-11-29T01:05:54.994Z,71.27
2017-11-29T01:07:57.669Z,78.97
2017-11-29T01:10:00.333Z,61.53
2017-11-29T01:12:02.986Z,80.07
2017-11-29T01:14:05.677Z,96.30
2017-11-29T01:16:08.428Z,114.27
2017-11-29T01:18:11.078Z,83.50
2017-11-29T01:20:13.763Z,118.60
2017-11-29T01:22:16.410Z,92.73
2017-11-29T01:24:19.835Z,100.70
2017-11-29T01:26:22.525Z,78.87
2017-11-29T01:28:25.189Z,86.60
2017-11-29T01:30:27.879Z,98.63
2017-11-29T01:32:30.652Z,89.67
2017-11-29T01:34:33.325Z,157.23
2017-11-29T01:36:36.008Z,94.03
2017-11-29T01:38:38.676Z,120.27
2017-11-29T01:40:41.346Z,102.57
2017-11-29T01:42:44.054Z,97.77
2017-11-29T01:44:46.821Z,130.87
2017-11-29T01:46:49.477Z,116.77
2017-11-29T01:48:52.182Z,106.90
2017-11-29T01:50:54.852Z,100.90
2017-11-29T01:52:57.527Z,118.10
2017-11-29T01:55:00.249Z,115.83
2017-11-29T01:57:03.674Z,121.90
2017-11-29T01:59:06.344Z,127.93
2017-11-29T02:01:09.048Z,173.77
2017-11-29T02:03:11.721Z,115.77
2017-11-29T02:05:14.498Z,123.17
2017-11-29T02:07:17.167Z,123.17
2017-11-29T02:09:19.845Z,109.63
2017-11-29T02:11:22.508Z,113.10
2017-11-29T02:13:25.196Z,138.73
2017-11-29T02:15:27.849Z,133.10
2017-11-29T02:17:30.538Z,121.93
2017-11-29T02:19:33.366Z,124.73
2017-11-29T02:21:36.088Z,105.17
2017-11-29T02:23:38.842Z,115.90
2017-11-29T02:25:42.416Z,121.20
2017-11-29T02:27:45.114Z,114.37
2017-11-29T02:29:48.627Z,115.83
2017-11-29T02:31:51.423Z,116.27
2017-11-29T02:33:54.113Z,121.07
2017-11-29T02:35:56.837Z,107.07
2017-11-29T02:37:59.543Z,109.73
2017-11-29T02:40:14.280Z,114.67
2017-11-29T02:42:41.227Z,124.37
2017-11-29T02:44:44.698Z,145.00
2017-11-29T02:46:48.196Z,115.40
2017-11-29T02:48:50.907Z,138.93
2017-11-29T02:50:53.769Z,108.30
2017-11-29T02:52:57.233Z,104.93
2017-11-29T02:54:59.968Z,136.03
2017-11-29T02:57:02.657Z,149.80
2017-11-29T02:59:05.532Z,115.20
2017-11-29T03:01:08.234Z,112.57
2017-11-29T03:03:10.914Z,105.50
2017-11-29T03:05:13.667Z,144.00
2017-11-29T03:07:16.548Z,103.37
2017-11-29T03:09:19.431Z,115.10
2017-11-29T03:11:22.109Z,139.10
2017-11-29T03:13:24.773Z,111.43
2017-11-29T03:15:27.416Z,129.67
2017-11-29T03:17:30.132Z,99.43
2017-11-29T03:19:32.795Z,127.10
2017-11-29T03:21:35.455Z,94.40
2017-11-29T03:23:38.898Z,121.03
2017-11-29T03:25:41.551Z,103.73
2017-11-29T03:27:44.322Z,90.30
2017-11-29T03:29:46.999Z,105.27
2017-11-29T03:31:49.642Z,89.13
2017-11-29T03:33:52.351Z,100.23
2017-11-29T03:35:55.210Z,88.43
2017-11-29T03:37:58.636Z,82.30
2017-11-29T03:40:01.295Z,107.23
2017-11-29T03:42:04.147Z,88.77
2017-11-29T03:44:07.608Z,101.50
2017-11-29T03:46:10.269Z,94.50
2017-11-29T03:48:13.055Z,98.70
2017-11-29T03:50:15.708Z,98.10
2017-11-29T03:52:18.399Z,85.60
2017-11-29T03:54:21.137Z,87.97
2017-11-29T03:56:24.570Z,87.80
2017-11-29T03:58:27.222Z,90.67
2017-11-29T04:00:30.981Z,75.97
2017-11-29T04:02:33.820Z,87.30
2017-11-29T04:04:36.484Z,86.77
2017-11-29T04:06:39.356Z,81.67
2017-11-29T04:08:42.857Z,77.03
2017-11-29T04:10:46.110Z,75.47
2017-11-29T04:12:48.914Z,77.97
2017-11-29T04:14:51.692Z,70.50
2017-11-29T04:16:55.156Z,77.77
2017-11-29T04:18:57.969Z,70.80
2017-11-29T04:21:01.414Z,74.27
2017-11-29T04:23:04.117Z,76.70
2017-11-29T04:25:06.861Z,79.13
2017-11-29T04:27:09.577Z,65.83
2017-11-29T04:29:12.582Z,78.03
2017-11-29T04:31:16.032Z,71.33
2017-11-29T04:33:18.685Z,72.00
2017-11-29T04:35:21.461Z,69.43
2017-11-29T04:37:24.181Z,79.77
2017-11-29T04:39:26.883Z,67.17
2017-11-29T04:41:30.326Z,74.90
2017-11-29T04:43:33.014Z,69.00
2017-11-29T04:45:35.695Z,68.40
2017-11-29T04:47:38.348Z,70.40
2017-11-29T04:49:41.053Z,73.97
2017-11-29T04:51:44.019Z,87.80
2017-11-29T04:53:46.761Z,85.67
2017-11-29T04:55:49.551Z,86.53
2017-11-29T04:57:52.239Z,80.47
2017-11-29T04:59:54.960Z,82.10
2017-11-29T05:01:57.656Z,77.23
2017-11-29T05:04:00.370Z,77.43
2017-11-29T05:06:03.143Z,84.97
2017-11-29T05:08:05.843Z,98.97
2017-11-29T05:10:08.544Z,89.57
2017-11-29T05:12:11.300Z,88.50
2017-11-29T05:14:14.012Z,95.40
2017-11-29T05:16:17.476Z,87.20
2017-11-29T05:18:20.218Z,80.27
2017-11-29T05:20:22.927Z,88.70
2017-11-29T05:22:25.833Z,87.87
2017-11-29T05:24:28.635Z,95.87
2017-11-29T05:26:31.548Z,94.27
2017-11-29T05:28:34.334Z,93.63
2017-11-29T05:30:37.345Z,105.97
2017-11-29T05:32:40.042Z,109.83
2017-11-29T05:34:43.693Z,95.37
2017-11-29T05:36:46.417Z,107.77
2017-11-29T05:38:51.940Z,103.90
2017-11-29T05:40:57.660Z,129.17
2017-11-29T05:43:00.366Z,119.37
2017-11-29T05:45:03.073Z,112.20
2017-11-29T05:47:05.823Z,119.07
2017-11-29T05:49:08.701Z,100.40
2017-11-29T05:51:12.199Z,94.60
2017-11-29T05:53:15.717Z,105.00
2017-11-29T05:55:19.185Z,124.77
2017-11-29T05:57:21.911Z,102.83
2017-11-29T05:59:24.626Z,91.13
2017-11-29T06:01:27.352Z,100.10
2017-11-29T06:03:30.047Z,99.57
2017-11-29T06:05:32.783Z,121.30
2017-11-29T06:07:35.504Z,110.43
2017-11-29T06:09:38.437Z,108.53
2017-11-29T06:11:41.291Z,100.03
2017-11-29T06:13:44.011Z,125.07
2017-11-29T06:15:47.457Z,109.60
2017-11-29T06:17:50.206Z,103.27
2017-11-29T06:19:52.876Z,107.90
2017-11-29T06:21:55.527Z,87.10
2017-11-29T06:23:59.027Z,99.43
2017-11-29T06:26:02.479Z,92.10
2017-11-29T06:28:05.205Z,100.43
2017-11-29T06:30:09.696Z,94.83
2017-11-29T06:32:13.153Z,94.30
2017-11-29T06:34:15.827Z,96.43
2017-11-29T06:36:18.532Z,120.47
2017-11-29T06:38:21.213Z,107.83
2017-11-29T06:40:23.898Z,109.80
2017-11-29T06:42:26.640Z,107.07
2017-11-29T06:44:29.324Z,104.87
2017-11-29T06:46:32.004Z,101.57
2017-11-29T06:48:34.759Z,92.00
2017-11-29T06:50:37.537Z,106.77
2017-11-29T06:52:40.241Z,124.73
2017-11-29T06:54:42.944Z,98.83
2017-11-29T06:56:45.613Z,103.53
2017-11-29T06:58:48.268Z,116.50
2017-11-29T07:00:50.965Z,154.10
2017-11-29T07:02:53.641Z,113.10
2017-11-29T07:04:56.304Z,116.60
2017-11-29T07:06:59.025Z,139.73
2017-11-29T07:09:01.730Z,101.07
2017-11-29T07:11:04.419Z,108.67
2017-11-29T07:13:07.094Z,109.80
2017-11-29T07:15:09.778Z,103.27
2017-11-29T07:17:12.468Z,93.10
2017-11-29T07:19:15.254Z,99.27
2017-11-29T07:21:18.373Z,88.60
2017-11-29T07:23:21.834Z,103.40
2017-11-29T07:25:24.549Z,96.97
2017-11-29T07:27:27.226Z,85.00
2017-11-29T07:29:29.872Z,82.10
2017-11-29T07:31:33.342Z,75.70
2017-11-29T07:33:36.090Z,85.07
2017-11-29T07:35:39.285Z,90.53
2017-11-29T07:37:42.080Z,70.73
2017-11-29T07:39:44.732Z,84.00
2017-11-29T07:41:47.382Z,74.17
2017-11-29T07:43:51.135Z,83.57
2017-11-29T07:45:53.777Z,75.00
2017-11-29T07:47:56.473Z,65.07
2017-11-29T07:49:59.251Z,64.47
2017-11-29T07:52:01.894Z,70.73
2017-11-29T07:54:08.565Z,58.57
2017-11-29T07:56:11.278Z,57.23
2017-11-29T07:58:13.938Z,65.80
2017-11-29T08:00:16.606Z,64.10
2017-11-29T08:02:19.334Z,56.10
2017-11-29T08:04:22.037Z,52.50
2017-11-29T08:06:25.471Z,55.17
2017-11-29T08:08:28.148Z,56.47
2017-11-29T08:10:30.830Z,48.73
2017-11-29T08:12:33.522Z,59.70
2017-11-29T08:14:36.265Z,50.70
2017-11-29T08:16:38.926Z,60.47
2017-11-29T08:18:41.644Z,48.60
2017-11-29T08:20:44.299Z,57.37
2017-11-29T08:22:46.964Z,54.23
2017-11-29T08:24:50.976Z,57.30
2017-11-29T08:26:53.641Z,56.97
2017-11-29T08:28:56.316Z,58.50
2017-11-29T08:30:59.028Z,50.57
2017-11-29T08:33:01.728Z,48.30
2017-11-29T08:35:05.197Z,50.63
2017-11-29T08:37:07.934Z,50.10
2017-11-29T08:39:10.639Z,50.93
2017-11-29T08:41:13.356Z,44.50
2017-11-29T08:43:16.292Z,43.00
2017-11-29T08:45:19.041Z,43.83
2017-11-29T08:47:21.742Z,39.73
2017-11-29T08:49:24.462Z,48.10
2017-11-29T08:51:27.166Z,39.23
2017-11-29T08:53:30.624Z,38.57
2017-11-29T08:55:33.476Z,43.97
2017-11-29T08:57:36.210Z,42.97
2017-11-29T08:59:39.673Z,41.27
2017-11-29T09:01:42.404Z,38.70
2017-11-29T09:03:45.095Z,44.90
2017-11-29T09:05:47.898Z,39.83
2017-11-29T09:07:50.637Z,48.80
2017-11-29T09:09:53.378Z,40.50
2017-11-29T09:11:56.210Z,43.20
2017-11-29T09:13:59.210Z,34.00
2017-11-29T09:16:01.899Z,37.80
2017-11-29T09:18:04.609Z,36.50
2017-11-29T09:20:08.106Z,39.20
2017-11-29T09:22:11.615Z,32.43
2017-11-29T09:24:14.332Z,30.60
2017-11-29T09:26:17.096Z,38.07
2017-11-29T09:28:19.789Z,35.70
2017-11-29T09:30:22.574Z,31.40
2017-11-29T09:32:25.306Z,29.90
2017-11-29T09:34:28.057Z,29.67
2017-11-29T09:36:30.771Z,28.73
2017-11-29T09:38:33.500Z,26.63
2017-11-29T09:40:36.393Z,27.90
2017-11-29T09:42:39.087Z,24.63
2017-11-29T09:44:42.589Z,27.73
2017-11-29T09:46:46.077Z,27.00
2017-11-29T09:48:49.534Z,26.63
2017-11-29T09:50:52.279Z,26.70
2017-11-29T09:52:54.989Z,21.03
2017-11-29T09:54:57.768Z,24.00
2017-11-29T09:57:00.522Z,21.53
2017-11-29T09:59:03.324Z,22.73
2017-11-29T10:01:06.052Z,28.57
2017-11-29T10:03:08.764Z,26.93
2017-11-29T10:05:11.486Z,27.67
2017-11-29T10:07:15.006Z,24.53
2017-11-29T10:09:17.709Z,30.90
2017-11-29T10:11:20.411Z,31.93
2017-11-29T10:13:23.130Z,28.03
2017-11-29T10:15:25.829Z,27.20
2017-11-29T10:17:28.544Z,26.17
2017-11-29T10:19:31.291Z,28.30
2017-11-29T10:21:34.977Z,24.53
2017-11-29T10:23:37.711Z,26.60
2017-11-29T10:25:40.443Z,29.63
2017-11-29T10:27:43.157Z,27.17
2017-11-29T10:29:45.911Z,25.43
2017-11-29T10:31:48.636Z,24.83
2017-11-29T10:33:52.108Z,22.60
2017-11-29T10:35:54.827Z,26.97
2017-11-29T10:37:57.581Z,28.50
2017-11-29T10:40:01.148Z,27.93
2017-11-29T10:42:03.860Z,22.90
2017-11-29T10:44:07.372Z,25.40
2017-11-29T10:46:10.090Z,24.30
2017-11-29T10:48:12.762Z,26.80
2017-11-29T10:50:15.535Z,27.83
2017-11-29T10:52:18.232Z,27.40
2017-11-29T10:54:20.962Z,27.77
2017-11-29T10:56:23.708Z,27.80
2017-11-29T10:58:26.407Z,26.80
2017-11-29T11:00:29.083Z,26.70
2017-11-29T11:02:31.885Z,32.07
2017-11-29T11:04:34.612Z,27.60
2017-11-29T11:06:38.092Z,27.10
2017-11-29T11:08:40.825Z,25.87
2017-11-29T11:10:43.532Z,25.87
2017-11-29T11:12:46.289Z,33.27
2017-11-29T11:14:49.059Z,27.23
2017-11-29T11:16:51.770Z,28.37
2017-11-29T11:18:54.548Z,26.13
2017-11-29T11:20:57.251Z,25.37
2017-11-29T11:22:59.945Z,30.13
2017-11-29T11:25:03.529Z,28.57
2017-11-29T11:27:07.593Z,27.70
2017-11-29T11:29:10.360Z,27.27
2017-11-29T11:31:13.114Z,27.33
2017-11-29T11:33:15.882Z,27.10
2017-11-29T11:35:19.338Z,33.13
2017-11-29T11:37:22.045Z,26.07
2017-11-29T11:39:25.532Z,26.27
2017-11-29T11:41:28.282Z,29.97
2017-11-29T11:43:30.985Z,26.13
2017-11-29T11:45:34.512Z,30.77
2017-11-29T11:47:37.225Z,32.90
2017-11-29T11:49:39.949Z,26.97
2017-11-29T11:51:43.439Z,26.17
2017-11-29T11:53:46.907Z,26.90
2017-11-29T11:55:49.617Z,35.60
2017-11-29T11:57:53.117Z,24.30
2017-11-29T11:59:56.580Z,28.00
2017-11-29T12:01:59.299Z,28.47
2017-11-29T12:04:01.991Z,26.73
2017-11-29T12:06:04.712Z,26.93
2017-11-29T12:08:07.421Z,29.33
2017-11-29T12:10:10.907Z,27.83
2017-11-29T12:12:14.397Z,24.43
2017-11-29T12:14:17.896Z,21.97
2017-11-29T12:16:21.379Z,23.67
2017-11-29T12:18:24.136Z,30.83
2017-11-29T12:20:26.987Z,26.30
2017-11-29T12:22:29.716Z,33.90
2017-11-29T12:24:32.496Z,27.83
2017-11-29T12:26:35.243Z,28.93
2017-11-29T12:28:37.962Z,28.90
2017-11-29T12:30:41.557Z,23.87
2017-11-29T12:32:45.125Z,26.30
2017-11-29T12:34:47.825Z,28.20
2017-11-29T12:36:50.544Z,24.20
2017-11-29T12:38:53.397Z,23.40
2017-11-29T12:40:56.874Z,27.17
2017-11-29T12:42:59.567Z,27.60
2017-11-29T12:45:03.154Z,31.83
2017-11-29T12:47:05.880Z,31.97
2017-11-29T12:49:20.505Z,25.17
2017-11-29T12:51:24.040Z,29.80
2017-11-29T12:53:26.764Z,23.20
2017-11-29T12:55:30.278Z,21.63
2017-11-29T12:57:32.997Z,23.17
2017-11-29T12:59:35.710Z,26.50
2017-11-29T13:01:39.258Z,29.37
2017-11-29T13:03:42.003Z,26.00
2017-11-29T13:05:44.734Z,25.97
2017-11-29T13:07:47.531Z,24.87
2017-11-29T13:09:50.295Z,23.13
2017-11-29T13:11:53.388Z,30.43
2017-11-29T13:13:56.433Z,20.90
2017-11-29T13:15:59.175Z,23.10
2017-11-29T13:18:02.652Z,24.20
2017-11-29T13:20:05.394Z,29.77
2017-11-29T13:22:08.186Z,37.27
2017-11-29T13:24:10.992Z,38.23
2017-11-29T13:26:13.756Z,34.83
2017-11-29T13:28:16.476Z,26.30
2017-11-29T13:30:19.210Z,27.87
2017-11-29T13:32:21.923Z,28.53
2017-11-29T13:34:25.389Z,22.47
2017-11-29T13:36:28.112Z,21.77
2017-11-29T13:38:30.857Z,25.20
2017-11-29T13:40:34.321Z,27.23
2017-11-29T13:42:37.028Z,25.37
2017-11-29T13:44:39.752Z,31.33
2017-11-29T13:46:42.524Z,32.20
2017-11-29T13:48:45.238Z,26.80
2017-11-29T13:50:47.921Z,30.67
2017-11-29T13:52:50.622Z,35.70
2017-11-29T13:54:54.153Z,30.73
2017-11-29T13:56:57.139Z,31.37
2017-11-29T13:58:59.853Z,35.23
2017-11-29T14:01:02.584Z,42.30
2017-11-29T14:03:05.302Z,36.20
2017-11-29T14:05:08.024Z,31.97
2017-11-29T14:07:10.832Z,52.50
2017-11-29T14:09:13.518Z,31.97
2017-11-29T14:11:16.210Z,38.73
2017-11-29T14:13:18.884Z,35.47
2017-11-29T14:15:21.567Z,32.60
2017-11-29T14:17:24.236Z,36.50
2017-11-29T14:19:26.987Z,33.93
2017-11-29T14:21:29.683Z,39.57
2017-11-29T14:23:32.334Z,35.70
2017-11-29T14:25:35.005Z,31.97
2017-11-29T14:27:37.726Z,34.90
2017-11-29T14:29:40.400Z,32.60
2017-11-29T14:31:43.445Z,33.40
2017-11-29T14:33:46.158Z,35.40
2017-11-29T14:35:48.901Z,32.63
2017-11-29T14:37:51.680Z,39.53
2017-11-29T14:39:54.449Z,34.97
2017-11-29T14:41:57.139Z,32.33
2017-11-29T14:43:59.810Z,38.40
2017-11-29T14:46:02.504Z,33.93
2017-11-29T14:48:05.209Z,34.70
2017-11-29T14:50:07.891Z,32.10
2017-11-29T14:52:10.596Z,32.13
2017-11-29T14:54:13.261Z,31.93
2017-11-29T14:56:16.816Z,30.77
2017-11-29T14:58:19.495Z,27.27
2017-11-29T15:00:22.158Z,30.27
2017-11-29T15:02:24.814Z,34.43
2017-11-29T15:04:27.489Z,35.80
2017-11-29T15:06:30.197Z,33.13
2017-11-29T15:08:32.946Z,27.37
2017-11-29T15:10:35.752Z,28.27
2017-11-29T15:12:38.408Z,30.73
2017-11-29T15:14:42.295Z,33.40
2017-11-29T15:16:44.996Z,34.33
2017-11-29T15:18:47.659Z,34.10
2017-11-29T15:20:50.298Z,32.20
2017-11-29T15:22:53.746Z,34.43
2017-11-29T15:24:56.503Z,35.27
2017-11-29T15:26:59.158Z,40.07
2017-11-29T15:29:02.624Z,31.33
2017-11-29T15:31:05.344Z,28.30
2017-11-29T15:33:08.063Z,34.63
2017-11-29T15:35:10.788Z,30.00
2017-11-29T15:37:13.467Z,32.57
2017-11-29T15:39:16.189Z,34.47
2017-11-29T15:41:18.938Z,34.83
2017-11-29T15:43:21.718Z,39.07
2017-11-29T15:45:24.394Z,38.27
2017-11-29T15:47:27.084Z,39.83
2017-11-29T15:49:29.856Z,38.60
2017-11-29T15:51:32.524Z,42.47
2017-11-29T15:53:35.378Z,37.77
2017-11-29T15:55:38.851Z,37.80
2017-11-29T15:57:41.531Z,38.90
2017-11-29T15:59:44.277Z,38.17
2017-11-29T16:01:47.029Z,36.10
2017-11-29T16:03:49.809Z,37.83
2017-11-29T16:05:52.691Z,36.27
2017-11-29T16:07:55.366Z,48.10
2017-11-29T16:09:58.069Z,45.03
2017-11-29T16:12:00.749Z,38.30
2017-11-29T16:14:03.420Z,40.57
2017-11-29T16:16:06.128Z,40.97
2017-11-29T16:18:09.629Z,42.60
2017-11-29T16:20:13.070Z,44.60
2017-11-29T16:22:15.971Z,50.53
2017-11-29T16:24:18.807Z,41.40
2017-11-29T16:26:21.495Z,41.00
2017-11-29T16:28:24.159Z,41.67
2017-11-29T16:30:26.843Z,46.87
2017-11-29T16:32:29.523Z,43.77
2017-11-29T16:34:32.202Z,46.53
2017-11-29T16:36:34.938Z,45.40
2017-11-29T16:38:37.656Z,53.07
2017-11-29T16:40:40.328Z,47.33
2017-11-29T16:42:43.035Z,48.00
2017-11-29T16:44:45.779Z,45.23
2017-11-29T16:46:48.458Z,43.03
2017-11-29T16:48:51.180Z,49.70
2017-11-29T16:50:53.865Z,54.30
2017-11-29T16:52:56.528Z,50.20
2017-11-29T16:54:59.243Z,51.63
2017-11-29T16:57:02.679Z,64.63
2017-11-29T16:59:05.339Z,66.30
2017-11-29T17:01:08.060Z,59.17
2017-11-29T17:03:10.916Z,61.63
2017-11-29T17:05:13.737Z,59.80
2017-11-29T17:07:17.221Z,60.33
2017-11-29T17:09:20.356Z,58.03
2017-11-29T17:11:23.113Z,74.20
2017-11-29T17:13:26.584Z,82.80
2017-11-29T17:15:29.271Z,74.07
2017-11-29T17:17:32.830Z,73.27
2017-11-29T17:19:35.521Z,67.00
2017-11-29T17:21:38.405Z,71.47
2017-11-29T17:23:41.124Z,68.07
2017-11-29T17:25:43.834Z,78.27
2017-11-29T17:27:46.538Z,74.67
2017-11-29T17:32:21.543Z,72.00
2017-11-29T17:34:24.231Z,74.57
2017-11-29T17:36:26.926Z,80.80
2017-11-29T17:38:29.634Z,97.47
2017-11-29T17:40:33.065Z,95.80
2017-11-29T17:42:35.769Z,85.33
2017-11-29T17:44:38.479Z,95.30
2017-11-29T17:46:42.056Z,87.30
2017-11-29T17:48:44.760Z,89.07
2017-11-29T17:50:48.274Z,83.60
2017-11-29T17:52:51.121Z,85.53
2017-11-29T17:54:53.825Z,90.40
2017-11-29T17:56:56.590Z,107.50
2017-11-29T17:59:00.145Z,100.93
2017-11-29T18:01:02.842Z,112.50
2017-11-29T18:03:05.556Z,90.10
2017-11-29T18:05:08.555Z,110.80
2017-11-29T18:07:11.225Z,86.97
2017-11-29T18:09:13.966Z,88.30
2017-11-29T18:11:16.633Z,85.87
2017-11-29T18:13:19.299Z,125.60
2017-11-29T18:15:21.998Z,110.17
2017-11-29T18:17:25.481Z,123.33
2017-11-29T18:19:28.149Z,111.63
2017-11-29T18:21:30.930Z,115.37
2017-11-29T18:23:34.999Z,104.57
2017-11-29T18:25:37.678Z,93.07
2017-11-29T18:27:40.491Z,83.67
2017-11-29T18:29:43.271Z,89.97
2017-11-29T18:31:46.702Z,92.60
2017-11-29T18:33:49.445Z,85.73
2017-11-29T18:35:52.158Z,95.40
2017-11-29T18:37:54.834Z,86.23
2017-11-29T18:39:58.308Z,91.10
2017-11-29T18:42:01.754Z,80.97
2017-11-29T18:44:04.450Z,87.70
2017-11-29T18:46:07.228Z,91.03
2017-11-29T18:48:10.015Z,115.60
2017-11-29T18:50:12.732Z,83.20
2017-11-29T18:52:15.436Z,92.97
2017-11-29T18:54:18.150Z,85.63
2017-11-29T18:56:20.906Z,87.47
2017-11-29T18:58:23.642Z,92.53
2017-11-29T19:00:27.111Z,112.23
2017-11-29T19:02:29.798Z,85.57
2017-11-29T19:04:33.329Z,100.20
2017-11-29T19:06:36.109Z,121.27
2017-11-29T19:08:38.788Z,118.37
2017-11-29T19:10:41.529Z,130.43
2017-11-29T19:12:45.098Z,136.83
2017-11-29T19:14:47.882Z,132.13
2017-11-29T19:16:50.769Z,127.30
2017-11-29T19:18:53.596Z,134.37
2017-11-29T19:20:56.297Z,132.13
2017-11-29T19:22:59.009Z,125.37
2017-11-29T19:25:01.893Z,132.50
2017-11-29T19:27:04.624Z,120.70
2017-11-29T19:29:07.387Z,141.43
2017-11-29T19:31:10.217Z,104.30
2017-11-29T19:33:12.938Z,140.53
2017-11-29T19:35:15.623Z,138.27
2017-11-29T19:37:18.699Z,137.70
2017-11-29T19:39:21.995Z,110.30
2017-11-29T19:41:25.524Z,108.57
2017-11-29T19:43:28.318Z,98.83
2017-11-29T19:45:31.800Z,114.30
2017-11-29T19:47:35.666Z,116.07
2017-11-29T19:49:38.576Z,108.50
2017-11-29T19:51:41.347Z,123.50
2017-11-29T19:53:46.235Z,109.70
2017-11-29T19:55:51.437Z,103.87
2017-11-29T19:57:54.286Z,114.53
2017-11-29T19:59:57.030Z,113.67
2017-11-29T20:02:00.557Z,113.70
2017-11-29T20:04:03.271Z,117.83
2017-11-29T20:06:05.965Z,109.27
2017-11-29T20:08:10.493Z,114.73
2017-11-29T20:10:15.355Z,111.70
2017-11-29T20:12:18.101Z,148.33
2017-11-29T20:14:21.687Z,112.43
2017-11-29T20:16:25.935Z,128.43
2017-11-29T20:18:28.658Z,111.00
2017-11-29T20:20:31.509Z,103.50
2017-11-29T20:22:36.310Z,89.30
2017-11-29T20:24:38.987Z,87.13
2017-11-29T20:26:41.783Z,96.40
2017-11-29T20:28:44.551Z,117.80
2017-11-29T20:30:47.358Z,108.60
2017-11-29T20:32:50.060Z,115.20
2017-11-29T20:34:52.956Z,119.77
2017-11-29T20:36:56.666Z,122.30
2017-11-29T20:39:00.096Z,125.87
2017-11-29T20:41:03.031Z,111.93
2017-11-29T20:43:06.450Z,142.00
2017-11-29T20:45:09.146Z,139.10
2017-11-29T20:47:11.816Z,124.17
2017-11-29T20:49:14.516Z,120.77
2017-11-29T20:51:17.208Z,131.80
2017-11-29T20:53:19.905Z,115.10
2017-11-29T20:55:23.369Z,115.73
2017-11-29T20:57:26.050Z,100.00
2017-11-29T20:59:28.914Z,107.17
2017-11-29T21:01:35.646Z,112.13
2017-11-29T21:03:38.324Z,92.77
2017-11-29T21:05:40.998Z,149.27
2017-11-29T21:07:44.442Z,128.20
2017-11-29T21:09:47.117Z,112.27
2017-11-29T21:11:49.886Z,152.13
2017-11-29T21:13:52.572Z,108.63
2017-11-29T21:15:55.247Z,157.27
2017-11-29T21:17:57.963Z,163.13
2017-11-29T21:20:01.414Z,153.60
2017-11-29T21:22:04.069Z,178.33
2017-11-29T21:24:06.731Z,115.37
2017-11-29T21:26:09.452Z,111.10
2017-11-29T21:28:12.131Z,108.77
2017-11-29T21:30:14.895Z,117.73
2017-11-29T21:32:17.590Z,115.77
2017-11-29T21:34:20.257Z,110.30
2017-11-29T21:36:22.940Z,115.50
2017-11-29T21:38:25.634Z,117.47
2017-11-29T21:40:28.307Z,129.40
2017-11-29T21:42:31.021Z,115.17
2017-11-29T21:44:33.721Z,114.27
2017-11-29T21:46:36.396Z,100.43
2017-11-29T21:48:40.225Z,87.23
2017-11-29T21:50:43.197Z,111.20
2017-11-29T21:52:45.859Z,94.63
2017-11-29T21:54:48.644Z,107.67
2017-11-29T21:56:51.413Z,100.83
2017-11-29T21:58:54.088Z,96.13
2017-11-29T22:00:56.908Z,94.00
2017-11-29T22:02:59.605Z,92.97
2017-11-29T22:05:03.070Z,87.40
2017-11-29T22:07:05.729Z,96.07
2017-11-29T22:09:08.434Z,89.83
2017-11-29T22:11:11.101Z,95.83
2017-11-29T22:13:13.782Z,105.90
2017-11-29T22:15:16.468Z,139.47
2017-11-29T22:17:19.138Z,118.13
2017-11-29T22:19:21.819Z,131.17
2017-11-29T22:21:24.541Z,106.70
2017-11-29T22:23:27.220Z,114.50
2017-11-29T22:25:30.512Z,99.20
2017-11-29T22:27:33.258Z,106.70
2017-11-29T22:29:36.677Z,108.23
2017-11-29T22:31:39.398Z,109.90
2017-11-29T22:33:42.122Z,110.13
2017-11-29T22:35:44.793Z,123.20
2017-11-29T22:37:47.452Z,110.87
2017-11-29T22:39:50.147Z,94.17
2017-11-29T22:41:53.650Z,96.23
2017-11-29T22:43:56.316Z,93.90
2017-11-29T22:45:59.012Z,90.90
2017-11-29T22:48:01.751Z,111.97
2017-11-29T22:50:05.198Z,101.60
2017-11-29T22:52:07.904Z,99.10
2017-11-29T22:54:11.454Z,92.00
2017-11-29T22:56:14.115Z,106.37
2017-11-29T22:58:16.937Z,100.17
2017-11-29T23:00:27.568Z,87.03
2017-11-29T23:02:30.264Z,91.77
2017-11-29T23:04:32.960Z,119.83
2017-11-29T23:06:35.644Z,103.00
2017-11-29T23:08:39.889Z,102.17
2017-11-29T23:10:43.338Z,114.37
2017-11-29T23:12:46.027Z,121.13
2017-11-29T23:14:48.966Z,117.77
2017-11-29T23:16:51.648Z,108.00
2017-11-29T23:18:54.330Z,119.00
2017-11-29T23:20:57.028Z,157.53
2017-11-29T23:22:59.699Z,96.73
2017-11-29T23:25:02.402Z,117.87
2017-11-29T23:27:05.100Z,145.90
2017-11-29T23:29:07.812Z,103.87
2017-11-29T23:31:10.537Z,105.37
2017-11-29T23:33:14.414Z,129.00
2017-11-29T23:35:17.161Z,121.43
2017-11-29T23:37:19.871Z,111.33
2017-11-29T23:39:22.578Z,123.03
2017-11-29T23:41:26.007Z,127.07
2017-11-29T23:43:28.659Z,142.70
2017-11-29T23:45:32.125Z,158.77
2017-11-29T23:47:34.783Z,127.53
2017-11-29T23:49:37.457Z,117.57
2017-11-29T23:51:40.330Z,118.50
2017-11-29T23:53:43.055Z,111.73
2017-11-29T23:55:46.537Z,109.53
2017-11-29T23:57:49.222Z,97.77
2017-11-29T23:59:52.662Z,105.07
